createdAt,value
2023-04-02T00:00:52.454Z,983.30
2023-04-02T00:01:52.485Z,983.37
2023-04-02T00:02:52.476Z,983.35
2023-04-02T00:03:52.457Z,983.38
2023-04-02T00:04:52.394Z,983.34
2023-04-02T00:05:52.399Z,983.39
2023-04-02T00:06:52.370Z,983.36
2023-04-02T00:07:52.372Z,983.47
2023-04-02T00:08:52.360Z,983.38
2023-04-02T00:09:52.348Z,983.45
2023-04-02T00:10:52.344Z,983.46
2023-04-02T00:11:52.317Z,983.41
2023-04-02T00:12:52.314Z,983.41
2023-04-02T00:13:52.296Z,983.49
2023-04-02T00:14:52.294Z,983.53
2023-04-02T00:15:52.290Z,983.49
2023-04-02T00:16:52.326Z,983.51
2023-04-02T00:17:52.307Z,983.52
2023-04-02T00:18:52.256Z,983.55
2023-04-02T00:19:52.231Z,983.62
2023-04-02T00:20:52.251Z,983.63
2023-04-02T00:21:52.226Z,983.64
2023-04-02T00:22:52.210Z,983.62
2023-04-02T00:23:52.195Z,983.70
2023-04-02T00:24:52.184Z,983.71
2023-04-02T00:25:52.180Z,983.79
2023-04-02T00:26:52.166Z,983.76
2023-04-02T00:27:52.149Z,983.73
2023-04-02T00:28:52.157Z,983.76
2023-04-02T00:29:52.138Z,983.88
2023-04-02T00:30:52.127Z,983.83
2023-04-02T00:31:52.126Z,983.86
2023-04-02T00:32:52.173Z,983.85
2023-04-02T00:33:52.087Z,983.88
2023-04-02T00:34:52.080Z,983.93
2023-04-02T00:35:52.106Z,983.87
2023-04-02T00:36:52.059Z,983.91
2023-04-02T00:37:52.049Z,983.94
2023-04-02T00:38:52.035Z,983.92
2023-04-02T00:39:52.023Z,984.03
2023-04-02T00:40:52.012Z,984.08
2023-04-02T00:41:52.010Z,984.07
2023-04-02T00:42:51.991Z,984.03
2023-04-02T00:43:51.982Z,984.14
2023-04-02T00:44:51.974Z,984.08
2023-04-02T00:45:51.990Z,984.14
2023-04-02T00:46:51.960Z,984.09
2023-04-02T00:47:51.971Z,984.17
2023-04-02T00:48:51.933Z,984.16
2023-04-02T00:49:51.921Z,984.23
2023-04-02T00:50:51.912Z,984.14
2023-04-02T00:51:51.903Z,984.21
2023-04-02T00:52:51.903Z,984.17
2023-04-02T00:53:51.871Z,984.27
2023-04-02T00:54:51.880Z,984.26
2023-04-02T00:55:51.852Z,984.34
2023-04-02T00:56:51.910Z,984.26
2023-04-02T00:57:51.829Z,984.33
2023-04-02T00:58:51.825Z,984.34
2023-04-02T00:59:51.828Z,984.38
2023-04-02T01:00:51.799Z,984.49
2023-04-02T01:01:51.825Z,984.39
2023-04-02T01:02:51.863Z,984.38
2023-04-02T01:03:51.825Z,984.48
2023-04-02T01:04:51.762Z,984.55
2023-04-02T01:05:51.743Z,984.47
2023-04-02T01:06:51.747Z,984.56
2023-04-02T01:07:51.737Z,984.49
2023-04-02T01:08:51.713Z,984.50
2023-04-02T01:09:51.724Z,984.52
2023-04-02T01:10:51.697Z,984.58
2023-04-02T01:11:51.689Z,984.52
2023-04-02T01:12:51.678Z,984.55
2023-04-02T01:13:51.659Z,984.52
2023-04-02T01:14:51.654Z,984.64
2023-04-02T01:15:51.655Z,984.58
2023-04-02T01:16:51.639Z,984.72
2023-04-02T01:17:52.856Z,984.68
2023-04-02T01:18:52.736Z,984.66
2023-04-02T01:19:52.770Z,984.74
2023-04-02T01:20:52.709Z,984.79
2023-04-02T01:21:52.712Z,984.78
2023-04-02T01:22:52.695Z,984.75
2023-04-02T01:23:52.714Z,984.89
2023-04-02T01:24:52.673Z,984.76
2023-04-02T01:25:52.667Z,984.84
2023-04-02T01:26:52.670Z,984.85
2023-04-02T01:27:52.641Z,984.94
2023-04-02T01:28:52.623Z,984.92
2023-04-02T01:29:52.616Z,984.93
2023-04-02T01:30:52.634Z,984.95
2023-04-02T01:31:52.609Z,984.88
2023-04-02T01:32:52.615Z,984.94
2023-04-02T01:33:52.581Z,985.12
2023-04-02T01:34:52.567Z,985.02
2023-04-02T01:35:52.606Z,985.00
2023-04-02T01:36:52.568Z,985.07
2023-04-02T01:37:52.538Z,985.09
2023-04-02T01:38:52.552Z,985.05
2023-04-02T01:39:52.519Z,985.07
2023-04-02T01:40:52.513Z,985.01
2023-04-02T01:41:52.521Z,985.19
2023-04-02T01:42:52.497Z,985.21
2023-04-02T01:43:52.476Z,985.17
2023-04-02T01:44:52.471Z,985.13
2023-04-02T01:45:52.475Z,985.25
2023-04-02T01:46:52.556Z,985.33
2023-04-02T01:47:52.474Z,985.30
2023-04-02T01:48:52.429Z,985.24
2023-04-02T01:49:52.740Z,985.41
2023-04-02T01:50:52.408Z,985.33
2023-04-02T01:51:52.418Z,985.45
2023-04-02T01:52:52.405Z,985.53
2023-04-02T01:53:52.394Z,985.41
2023-04-02T01:54:52.378Z,985.42
2023-04-02T01:55:52.354Z,985.47
2023-04-02T01:56:52.372Z,985.53
2023-04-02T01:57:52.340Z,985.50
2023-04-02T01:58:52.323Z,985.52
2023-04-02T01:59:52.315Z,985.56
2023-04-02T02:00:52.329Z,985.59
2023-04-02T02:01:52.350Z,985.55
2023-04-02T02:02:52.313Z,985.54
2023-04-02T02:03:52.282Z,985.59
2023-04-02T02:04:52.269Z,985.66
2023-04-02T02:05:52.276Z,985.62
2023-04-02T02:06:52.274Z,985.73
2023-04-02T02:07:52.241Z,985.78
2023-04-02T02:08:52.227Z,985.65
2023-04-02T02:09:52.243Z,985.75
2023-04-02T02:10:52.201Z,985.72
2023-04-02T02:11:52.202Z,985.76
2023-04-02T02:12:52.204Z,985.76
2023-04-02T02:13:52.179Z,985.79
2023-04-02T02:14:52.223Z,985.84
2023-04-02T02:15:52.158Z,985.87
2023-04-02T02:16:52.142Z,985.85
2023-04-02T02:17:52.208Z,985.83
2023-04-02T02:18:52.135Z,985.84
2023-04-02T02:19:52.121Z,985.88
2023-04-02T02:20:52.107Z,985.87
2023-04-02T02:21:52.093Z,985.94
2023-04-02T02:22:52.099Z,985.94
2023-04-02T02:23:52.085Z,985.98
2023-04-02T02:24:52.079Z,985.94
2023-04-02T02:25:52.064Z,986.00
2023-04-02T02:26:52.056Z,986.14
2023-04-02T02:27:52.054Z,986.03
2023-04-02T02:28:52.032Z,986.01
2023-04-02T02:29:52.028Z,986.08
2023-04-02T02:30:52.013Z,986.09
2023-04-02T02:31:52.024Z,986.12
2023-04-02T02:32:52.063Z,986.12
2023-04-02T02:33:51.996Z,986.18
2023-04-02T02:34:51.976Z,986.15
2023-04-02T02:35:52.048Z,986.15
2023-04-02T02:36:51.950Z,986.19
2023-04-02T02:37:51.959Z,986.29
2023-04-02T02:38:54.062Z,986.31
2023-04-02T02:39:52.928Z,986.27
2023-04-02T02:40:51.913Z,986.37
2023-04-02T02:41:51.907Z,986.34
2023-04-02T02:42:51.902Z,986.37
2023-04-02T02:43:51.886Z,986.44
2023-04-02T02:44:51.873Z,986.43
2023-04-02T02:45:51.884Z,986.48
2023-04-02T02:46:51.850Z,986.43
2023-04-02T02:47:51.902Z,986.50
2023-04-02T02:48:51.829Z,986.52
2023-04-02T02:49:51.823Z,986.51
2023-04-02T02:50:51.815Z,986.56
2023-04-02T02:51:51.799Z,986.60
2023-04-02T02:52:51.797Z,986.58
2023-04-02T02:53:51.794Z,986.56
2023-04-02T02:54:51.780Z,986.61
2023-04-02T02:55:51.757Z,986.60
2023-04-02T02:56:51.766Z,986.70
2023-04-02T02:57:51.751Z,986.64
2023-04-02T02:58:51.729Z,986.67
2023-04-02T02:59:51.722Z,986.64
2023-04-02T03:00:51.708Z,986.63
2023-04-02T03:01:51.698Z,986.70
2023-04-02T03:02:51.768Z,986.71
2023-04-02T03:03:51.913Z,986.71
2023-04-02T03:04:51.667Z,986.79
2023-04-02T03:05:51.664Z,986.80
2023-04-02T03:06:51.647Z,986.88
2023-04-02T03:07:51.656Z,986.78
2023-04-02T03:08:51.631Z,986.87
2023-04-02T03:09:51.621Z,986.85
2023-04-02T03:10:51.610Z,986.88
2023-04-02T03:11:51.604Z,986.89
2023-04-02T03:12:51.602Z,986.89
2023-04-02T03:13:51.582Z,986.92
2023-04-02T03:14:51.573Z,986.90
2023-04-02T03:15:51.586Z,986.94
2023-04-02T03:16:51.549Z,987.01
2023-04-02T03:17:51.644Z,987.02
2023-04-02T03:18:51.534Z,987.04
2023-04-02T03:19:51.532Z,986.99
2023-04-02T03:20:51.505Z,987.15
2023-04-02T03:21:51.497Z,987.09
2023-04-02T03:22:51.498Z,987.12
2023-04-02T03:23:51.476Z,987.08
2023-04-02T03:24:51.482Z,987.15
2023-04-02T03:25:51.457Z,987.25
2023-04-02T03:26:51.448Z,987.21
2023-04-02T03:27:51.449Z,987.26
2023-04-02T03:28:51.436Z,987.29
2023-04-02T03:29:51.420Z,987.30
2023-04-02T03:30:51.475Z,987.25
2023-04-02T03:31:51.406Z,987.27
2023-04-02T03:32:51.473Z,987.38
2023-04-02T03:33:51.383Z,987.27
2023-04-02T03:34:51.369Z,987.42
2023-04-02T03:35:51.382Z,987.39
2023-04-02T03:36:51.355Z,987.44
2023-04-02T03:37:51.352Z,987.41
2023-04-02T03:38:51.331Z,987.52
2023-04-02T03:39:51.328Z,987.54
2023-04-02T03:40:51.307Z,987.53
2023-04-02T03:41:51.299Z,987.59
2023-04-02T03:42:51.294Z,987.56
2023-04-02T03:43:51.277Z,987.62
2023-04-02T03:44:51.287Z,987.57
2023-04-02T03:45:51.256Z,987.72
2023-04-02T03:46:51.282Z,987.62
2023-04-02T03:47:51.289Z,987.66
2023-04-02T03:48:51.226Z,987.68
2023-04-02T03:49:51.216Z,987.75
2023-04-02T03:50:51.213Z,987.66
2023-04-02T03:51:51.207Z,987.70
2023-04-02T03:52:51.195Z,987.73
2023-04-02T03:53:51.191Z,987.69
2023-04-02T03:54:53.791Z,987.79
2023-04-02T03:55:51.155Z,987.76
2023-04-02T03:56:51.182Z,987.79
2023-04-02T03:57:51.135Z,987.84
2023-04-02T03:58:51.142Z,987.83
2023-04-02T03:59:51.113Z,987.87
2023-04-02T04:00:51.109Z,987.86
2023-04-02T04:01:51.145Z,987.91
2023-04-02T04:02:51.128Z,987.92
2023-04-02T04:03:51.093Z,988.01
2023-04-02T04:04:51.062Z,988.04
2023-04-02T04:05:51.058Z,988.04
2023-04-02T04:06:51.044Z,988.00
2023-04-02T04:07:51.039Z,988.08
2023-04-02T04:08:51.030Z,988.09
2023-04-02T04:09:51.014Z,988.04
2023-04-02T04:10:51.047Z,988.10
2023-04-02T04:11:50.994Z,988.09
2023-04-02T04:12:51.001Z,988.09
2023-04-02T04:13:50.983Z,988.15
2023-04-02T04:14:50.961Z,988.28
2023-04-02T04:15:51.059Z,988.21
2023-04-02T04:16:50.981Z,988.16
2023-04-02T04:17:50.995Z,988.21
2023-04-02T04:18:50.930Z,988.19
2023-04-02T04:19:50.909Z,988.34
2023-04-02T04:20:50.952Z,988.24
2023-04-02T04:21:50.887Z,988.25
2023-04-02T04:22:50.881Z,988.32
2023-04-02T04:23:50.879Z,988.44
2023-04-02T04:24:50.863Z,988.37
2023-04-02T04:25:50.851Z,988.37
2023-04-02T04:26:50.840Z,988.44
2023-04-02T04:27:50.831Z,988.47
2023-04-02T04:28:50.861Z,988.50
2023-04-02T04:29:50.822Z,988.46
2023-04-02T04:30:50.813Z,988.56
2023-04-02T04:31:50.853Z,988.50
2023-04-02T04:32:50.796Z,988.58
2023-04-02T04:33:50.789Z,988.62
2023-04-02T04:34:50.783Z,988.59
2023-04-02T04:35:50.805Z,988.61
2023-04-02T04:36:50.750Z,988.67
2023-04-02T04:37:50.727Z,988.63
2023-04-02T04:38:50.733Z,988.67
2023-04-02T04:39:50.711Z,988.67
2023-04-02T04:40:50.710Z,988.66
2023-04-02T04:41:50.700Z,988.71
2023-04-02T04:42:50.691Z,988.71
2023-04-02T04:43:50.683Z,988.88
2023-04-02T04:44:50.666Z,988.79
2023-04-02T04:45:50.686Z,988.81
2023-04-02T04:46:50.647Z,988.89
2023-04-02T04:47:50.683Z,988.81
2023-04-02T04:48:50.640Z,988.85
2023-04-02T04:49:50.620Z,988.89
2023-04-02T04:50:50.610Z,988.86
2023-04-02T04:51:50.601Z,988.95
2023-04-02T04:52:50.591Z,988.93
2023-04-02T04:53:50.586Z,989.01
2023-04-02T04:54:50.568Z,989.04
2023-04-02T04:55:50.554Z,989.07
2023-04-02T04:56:50.559Z,989.08
2023-04-02T04:57:50.540Z,989.10
2023-04-02T04:58:50.532Z,989.11
2023-04-02T04:59:50.522Z,989.16
2023-04-02T05:00:50.506Z,989.20
2023-04-02T05:01:50.695Z,989.18
2023-04-02T05:02:50.525Z,989.28
2023-04-02T05:03:50.493Z,989.32
2023-04-02T05:04:52.872Z,989.19
2023-04-02T05:05:50.458Z,989.24
2023-04-02T05:06:50.443Z,989.35
2023-04-02T05:07:50.442Z,989.43
2023-04-02T05:08:50.431Z,989.46
2023-04-02T05:09:50.422Z,989.44
2023-04-02T05:10:51.390Z,989.52
2023-04-02T05:11:50.392Z,989.47
2023-04-02T05:12:51.265Z,989.51
2023-04-02T05:13:50.387Z,989.50
2023-04-02T05:14:50.364Z,989.54
2023-04-02T05:15:50.363Z,989.53
2023-04-02T05:16:50.343Z,989.57
2023-04-02T05:17:50.372Z,989.58
2023-04-02T05:18:50.334Z,989.60
2023-04-02T05:19:50.316Z,989.63
2023-04-02T05:20:50.302Z,989.62
2023-04-02T05:21:50.290Z,989.67
2023-04-02T05:22:50.280Z,989.69
2023-04-02T05:23:50.278Z,989.74
2023-04-02T05:24:50.269Z,989.74
2023-04-02T05:25:50.257Z,989.73
2023-04-02T05:26:50.243Z,989.75
2023-04-02T05:27:50.221Z,989.76
2023-04-02T05:28:50.228Z,989.82
2023-04-02T05:29:50.196Z,989.81
2023-04-02T05:30:50.191Z,989.72
2023-04-02T05:31:50.361Z,989.81
2023-04-02T05:32:50.197Z,989.83
2023-04-02T05:33:50.178Z,989.83
2023-04-02T05:34:50.165Z,989.81
2023-04-02T05:35:50.190Z,989.90
2023-04-02T05:36:50.134Z,989.90
2023-04-02T05:37:50.133Z,990.00
2023-04-02T05:38:50.113Z,989.97
2023-04-02T05:39:50.117Z,989.95
2023-04-02T05:40:50.094Z,990.05
2023-04-02T05:41:50.085Z,989.99
2023-04-02T05:42:50.081Z,990.09
2023-04-02T05:43:50.072Z,990.01
2023-04-02T05:44:51.058Z,990.08
2023-04-02T05:45:50.044Z,990.16
2023-04-02T05:46:50.086Z,990.07
2023-04-02T05:47:50.051Z,990.10
2023-04-02T05:48:50.014Z,990.14
2023-04-02T05:49:50.022Z,990.20
2023-04-02T05:50:49.996Z,990.21
2023-04-02T05:51:49.985Z,990.35
2023-04-02T05:52:49.969Z,990.25
2023-04-02T05:53:49.965Z,990.30
2023-04-02T05:54:49.967Z,990.27
2023-04-02T05:55:49.953Z,990.30
2023-04-02T05:56:49.970Z,990.33
2023-04-02T05:58:07.032Z,990.31
2023-04-02T05:58:51.988Z,990.35
2023-04-02T05:59:49.904Z,990.35
2023-04-02T06:00:49.888Z,990.42
2023-04-02T06:01:49.914Z,990.43
2023-04-02T06:02:49.903Z,990.50
2023-04-02T06:03:49.881Z,990.49
2023-04-02T06:04:49.859Z,990.50
2023-04-02T06:05:49.835Z,990.61
2023-04-02T06:06:49.848Z,990.62
2023-04-02T06:07:49.815Z,990.61
2023-04-02T06:08:49.813Z,990.61
2023-04-02T06:09:49.808Z,990.67
2023-04-02T06:10:49.785Z,990.65
2023-04-02T06:11:49.770Z,990.66
2023-04-02T06:12:49.770Z,990.66
2023-04-02T06:13:49.759Z,990.72
2023-04-02T06:14:49.754Z,990.79
2023-04-02T06:15:49.739Z,990.84
2023-04-02T06:16:49.774Z,990.79
2023-04-02T06:17:49.730Z,990.93
2023-04-02T06:18:49.698Z,990.84
2023-04-02T06:19:49.704Z,990.83
2023-04-02T06:20:49.684Z,990.81
2023-04-02T06:21:49.677Z,990.90
2023-04-02T06:22:49.656Z,990.94
2023-04-02T06:23:49.651Z,990.95
2023-04-02T06:24:49.643Z,990.97
2023-04-02T06:25:49.622Z,990.96
2023-04-02T06:26:49.612Z,991.07
2023-04-02T06:27:49.913Z,991.04
2023-04-02T06:28:49.609Z,991.07
2023-04-02T06:29:49.649Z,991.07
2023-04-02T06:30:49.579Z,991.15
2023-04-02T06:31:49.613Z,991.14
2023-04-02T06:32:49.598Z,991.21
2023-04-02T06:33:49.606Z,991.13
2023-04-02T06:34:49.541Z,991.24
2023-04-02T06:35:49.532Z,991.19
2023-04-02T06:36:49.531Z,991.28
2023-04-02T06:37:49.505Z,991.24
2023-04-02T06:38:49.500Z,991.27
2023-04-02T06:39:49.507Z,991.29
2023-04-02T06:40:49.500Z,991.26
2023-04-02T06:41:49.460Z,991.42
2023-04-02T06:42:49.450Z,991.39
2023-04-02T06:43:49.447Z,991.38
2023-04-02T06:44:49.455Z,991.41
2023-04-02T06:45:49.508Z,991.40
2023-04-02T06:46:51.806Z,991.39
2023-04-02T06:47:49.429Z,991.48
2023-04-02T06:48:49.404Z,991.48
2023-04-02T06:49:49.400Z,991.49
2023-04-02T06:50:49.377Z,991.52
2023-04-02T06:51:49.360Z,991.58
2023-04-02T06:52:49.346Z,991.54
2023-04-02T06:53:49.341Z,991.60
2023-04-02T06:54:49.372Z,991.56
2023-04-02T06:55:49.331Z,991.73
2023-04-02T06:56:49.315Z,991.73
2023-04-02T06:57:49.301Z,991.80
2023-04-02T06:58:49.284Z,991.68
2023-04-02T06:59:49.276Z,991.75
2023-04-02T07:00:49.283Z,991.75
2023-04-02T07:01:49.329Z,991.81
2023-04-02T07:02:49.267Z,991.89
2023-04-02T07:03:49.239Z,991.85
2023-04-02T07:04:49.251Z,991.82
2023-04-02T07:05:49.221Z,991.92
2023-04-02T07:06:49.205Z,991.85
2023-04-02T07:07:49.191Z,991.97
2023-04-02T07:08:49.179Z,991.94
2023-04-02T07:09:49.179Z,992.01
2023-04-02T07:10:49.168Z,991.95
2023-04-02T07:11:49.145Z,992.15
2023-04-02T07:12:49.202Z,992.02
2023-04-02T07:13:49.116Z,992.10
2023-04-02T07:14:49.141Z,992.08
2023-04-02T07:15:49.144Z,992.13
2023-04-02T07:16:49.104Z,992.27
2023-04-02T07:17:49.108Z,992.20
2023-04-02T07:18:49.084Z,992.19
2023-04-02T07:19:49.066Z,992.25
2023-04-02T07:20:49.060Z,992.22
2023-04-02T07:21:49.049Z,992.26
2023-04-02T07:22:49.030Z,992.25
2023-04-02T07:23:49.025Z,992.32
2023-04-02T07:24:49.014Z,992.29
2023-04-02T07:25:49.009Z,992.38
2023-04-02T07:26:48.990Z,992.44
2023-04-02T07:27:48.973Z,992.35
2023-04-02T07:28:48.963Z,992.44
2023-04-02T07:29:48.949Z,992.44
2023-04-02T07:30:48.954Z,992.48
2023-04-02T07:31:49.198Z,992.51
2023-04-02T07:32:48.930Z,992.55
2023-04-02T07:33:48.916Z,992.55
2023-04-02T07:34:48.921Z,992.54
2023-04-02T07:35:48.910Z,992.62
2023-04-02T07:36:49.072Z,992.57
2023-04-02T07:37:48.885Z,992.57
2023-04-02T07:38:48.867Z,992.72
2023-04-02T07:39:48.843Z,992.62
2023-04-02T07:40:48.846Z,992.76
2023-04-02T07:41:48.829Z,992.85
2023-04-02T07:42:49.169Z,992.71
2023-04-02T07:43:48.896Z,992.84
2023-04-02T07:44:48.883Z,992.79
2023-04-02T07:45:49.835Z,992.89
2023-04-02T07:46:48.812Z,992.85
2023-04-02T07:47:48.834Z,992.98
2023-04-02T07:48:48.820Z,992.93
2023-04-02T07:49:48.774Z,992.96
2023-04-02T07:50:48.797Z,993.02
2023-04-02T07:51:48.992Z,993.05
2023-04-02T07:52:48.741Z,992.96
2023-04-02T07:53:48.715Z,992.95
2023-04-02T07:54:48.724Z,993.04
2023-04-02T07:55:48.704Z,993.03
2023-04-02T07:56:48.674Z,993.00
2023-04-02T07:57:48.681Z,993.19
2023-04-02T07:58:48.660Z,993.17
2023-04-02T07:59:48.648Z,993.06
2023-04-02T08:00:48.642Z,993.08
2023-04-02T08:01:48.649Z,993.18
2023-04-02T08:02:48.640Z,993.22
2023-04-02T08:03:48.651Z,993.21
2023-04-02T08:04:48.596Z,993.25
2023-04-02T08:05:48.611Z,993.20
2023-04-02T08:06:48.591Z,993.24
2023-04-02T08:07:48.555Z,993.28
2023-04-02T08:08:48.568Z,993.31
2023-04-02T08:09:48.544Z,993.32
2023-04-02T08:10:48.527Z,993.24
2023-04-02T08:11:48.529Z,993.32
2023-04-02T08:12:48.525Z,993.28
2023-04-02T08:13:48.522Z,993.32
2023-04-02T08:14:49.474Z,993.48
2023-04-02T08:15:48.493Z,993.47
2023-04-02T08:16:48.521Z,993.44
2023-04-02T08:17:48.516Z,993.53
2023-04-02T08:18:48.453Z,993.52
2023-04-02T08:19:54.795Z,993.51
2023-04-02T08:20:50.443Z,993.52
2023-04-02T08:21:48.449Z,993.58
2023-04-02T08:22:48.414Z,993.66
2023-04-02T08:23:48.473Z,993.49
2023-04-02T08:24:48.472Z,993.70
2023-04-02T08:25:48.375Z,993.68
2023-04-02T08:26:48.381Z,993.72
2023-04-02T08:27:48.363Z,993.76
2023-04-02T08:28:48.355Z,993.82
2023-04-02T08:29:48.341Z,993.74
2023-04-02T08:30:48.354Z,993.88
2023-04-02T08:31:48.326Z,993.81
2023-04-02T08:32:49.046Z,993.85
2023-04-02T08:33:48.307Z,993.96
2023-04-02T08:34:48.282Z,993.95
2023-04-02T08:35:48.320Z,994.01
2023-04-02T08:36:48.273Z,993.95
2023-04-02T08:37:48.265Z,994.02
2023-04-02T08:38:48.248Z,994.08
2023-04-02T08:39:48.303Z,994.09
2023-04-02T08:40:48.222Z,994.09
2023-04-02T08:41:48.248Z,994.13
2023-04-02T08:42:48.314Z,994.11
2023-04-02T08:43:48.192Z,994.09
2023-04-02T08:44:48.180Z,994.10
2023-04-02T08:45:48.185Z,994.13
2023-04-02T08:46:48.175Z,994.22
2023-04-02T08:47:48.176Z,994.14
2023-04-02T08:48:48.156Z,994.20
2023-04-02T08:49:48.136Z,994.21
2023-04-02T08:50:48.119Z,994.18
2023-04-02T08:51:48.112Z,994.17
2023-04-02T08:52:49.119Z,994.22
2023-04-02T08:53:48.102Z,994.23
2023-04-02T08:54:48.091Z,994.20
2023-04-02T08:55:48.119Z,994.25
2023-04-02T08:56:48.124Z,994.29
2023-04-02T08:57:48.060Z,994.23
2023-04-02T08:58:48.051Z,994.31
2023-04-02T08:59:48.053Z,994.32
2023-04-02T09:00:48.035Z,994.36
2023-04-02T09:01:48.046Z,994.38
2023-04-02T09:02:47.986Z,994.40
2023-04-02T09:03:47.972Z,994.42
2023-04-02T09:04:48.002Z,994.44
2023-04-02T09:05:47.964Z,994.40
2023-04-02T09:06:47.959Z,994.49
2023-04-02T09:07:47.948Z,994.52
2023-04-02T09:08:47.936Z,994.48
2023-04-02T09:09:47.916Z,994.42
2023-04-02T09:10:47.897Z,994.49
2023-04-02T09:11:48.917Z,994.56
2023-04-02T09:12:47.895Z,994.58
2023-04-02T09:13:47.889Z,994.61
2023-04-02T09:14:48.057Z,994.60
2023-04-02T09:15:47.927Z,994.65
2023-04-02T09:16:47.931Z,994.67
2023-04-02T09:17:54.021Z,994.61
2023-04-02T09:18:50.016Z,994.66
2023-04-02T09:19:47.808Z,994.58
2023-04-02T09:20:47.796Z,994.69
2023-04-02T09:21:47.795Z,994.68
2023-04-02T09:22:48.787Z,994.78
2023-04-02T09:23:47.769Z,994.75
2023-04-02T09:24:47.768Z,994.71
2023-04-02T09:25:57.392Z,994.74
2023-04-02T09:26:49.761Z,994.84
2023-04-02T09:27:47.725Z,994.76
2023-04-02T09:28:47.714Z,994.87
2023-04-02T09:29:47.705Z,994.86
2023-04-02T09:30:47.722Z,995.04
2023-04-02T09:31:47.718Z,995.00
2023-04-02T09:32:47.702Z,994.91
2023-04-02T09:33:47.659Z,994.95
2023-04-02T09:34:47.660Z,994.94
2023-04-02T09:35:47.671Z,995.01
2023-04-02T09:36:47.631Z,995.15
2023-04-02T09:37:47.636Z,995.07
2023-04-02T09:38:47.611Z,995.09
2023-04-02T09:39:47.604Z,995.10
2023-04-02T09:40:47.602Z,995.09
2023-04-02T09:41:55.798Z,995.10
2023-04-02T09:42:49.585Z,995.12
2023-04-02T09:43:47.562Z,995.12
2023-04-02T09:44:47.548Z,995.16
2023-04-02T09:45:47.541Z,995.18
2023-04-02T09:46:47.570Z,995.18
2023-04-02T09:47:47.568Z,995.14
2023-04-02T09:48:47.511Z,995.18
2023-04-02T09:49:47.499Z,995.22
2023-04-02T09:50:47.487Z,995.20
2023-04-02T09:51:47.480Z,995.26
2023-04-02T09:52:47.475Z,995.17
2023-04-02T09:53:47.459Z,995.28
2023-04-02T09:54:47.444Z,995.26
2023-04-02T09:55:47.447Z,995.31
2023-04-02T09:56:47.435Z,995.25
2023-04-02T09:57:47.425Z,995.43
2023-04-02T09:58:48.406Z,995.33
2023-04-02T09:59:47.389Z,995.31
2023-04-02T10:00:47.520Z,995.35
2023-04-02T10:01:47.415Z,995.47
2023-04-02T10:03:02.984Z,995.37
2023-04-02T10:03:48.401Z,995.46
2023-04-02T10:04:47.479Z,995.47
2023-04-02T10:05:47.602Z,995.52
2023-04-02T10:06:47.332Z,995.52
2023-04-02T10:07:47.332Z,995.49
2023-04-02T10:08:47.304Z,995.64
2023-04-02T10:09:47.294Z,995.54
2023-04-02T10:10:47.282Z,995.70
2023-04-02T10:11:47.270Z,995.48
2023-04-02T10:12:47.276Z,995.66
2023-04-02T10:13:47.290Z,995.77
2023-04-02T10:14:47.266Z,995.78
2023-04-02T10:15:47.258Z,995.73
2023-04-02T10:16:47.286Z,995.86
2023-04-02T10:17:47.258Z,995.80
2023-04-02T10:18:47.213Z,995.75
2023-04-02T10:19:47.259Z,995.77
2023-04-02T10:20:51.193Z,995.79
2023-04-02T10:21:48.185Z,995.79
2023-04-02T10:22:47.208Z,995.83
2023-04-02T10:23:47.146Z,995.83
2023-04-02T10:24:47.139Z,995.87
2023-04-02T10:25:47.122Z,995.93
2023-04-02T10:26:47.113Z,995.91
2023-04-02T10:27:47.126Z,995.88
2023-04-02T10:28:47.096Z,995.97
2023-04-02T10:29:47.097Z,995.96
2023-04-02T10:30:47.102Z,996.01
2023-04-02T10:31:47.066Z,996.14
2023-04-02T10:32:47.088Z,996.01
2023-04-02T10:33:47.062Z,996.02
2023-04-02T10:34:47.032Z,996.07
2023-04-02T10:35:47.104Z,996.12
2023-04-02T10:36:47.021Z,996.10
2023-04-02T10:37:47.141Z,996.17
2023-04-02T10:38:47.000Z,996.16
2023-04-02T10:39:47.003Z,996.08
2023-04-02T10:40:46.985Z,996.15
2023-04-02T10:41:46.985Z,996.24
2023-04-02T10:42:46.980Z,996.20
2023-04-02T10:43:46.956Z,996.22
2023-04-02T10:44:46.945Z,996.27
2023-04-02T10:45:46.996Z,996.27
2023-04-02T10:46:46.923Z,996.24
2023-04-02T10:47:46.969Z,996.27
2023-04-02T10:48:46.893Z,996.32
2023-04-02T10:49:46.971Z,996.23
2023-04-02T10:50:46.889Z,996.29
2023-04-02T10:51:46.868Z,996.30
2023-04-02T10:52:46.876Z,996.28
2023-04-02T10:53:46.856Z,996.29
2023-04-02T10:54:46.855Z,996.34
2023-04-02T10:55:46.862Z,996.32
2023-04-02T10:56:51.159Z,996.48
2023-04-02T10:57:47.828Z,996.39
2023-04-02T10:58:46.820Z,996.37
2023-04-02T10:59:46.830Z,996.35
2023-04-02T11:00:46.821Z,996.45
2023-04-02T11:01:46.831Z,996.33
2023-04-02T11:02:46.868Z,996.46
2023-04-02T11:03:46.886Z,996.47
2023-04-02T11:04:46.760Z,996.50
2023-04-02T11:05:46.736Z,996.51
2023-04-02T11:06:46.773Z,996.57
2023-04-02T11:07:46.722Z,996.47
2023-04-02T11:08:46.771Z,996.54
2023-04-02T11:09:46.719Z,996.50
2023-04-02T11:10:46.699Z,996.51
2023-04-02T11:11:46.694Z,996.54
2023-04-02T11:12:46.660Z,996.60
2023-04-02T11:13:46.687Z,996.54
2023-04-02T11:14:46.665Z,996.54
2023-04-02T11:15:46.680Z,996.69
2023-04-02T11:16:46.730Z,996.76
2023-04-02T11:17:46.631Z,996.67
2023-04-02T11:18:46.624Z,996.70
2023-04-02T11:19:46.590Z,996.71
2023-04-02T11:20:46.578Z,996.77
2023-04-02T11:21:58.120Z,996.73
2023-04-02T11:22:48.578Z,996.74
2023-04-02T11:23:46.576Z,996.71
2023-04-02T11:24:46.537Z,996.71
2023-04-02T11:25:46.525Z,996.79
2023-04-02T11:26:47.566Z,996.79
2023-04-02T11:27:46.509Z,996.77
2023-04-02T11:28:46.518Z,996.78
2023-04-02T11:29:46.507Z,996.83
2023-04-02T11:30:46.488Z,996.81
2023-04-02T11:31:46.537Z,996.88
2023-04-02T11:32:46.460Z,997.00
2023-04-02T11:33:48.843Z,996.91
2023-04-02T11:34:49.537Z,996.89
2023-04-02T11:35:47.457Z,996.91
2023-04-02T11:36:46.429Z,996.91
2023-04-02T11:37:46.401Z,997.00
2023-04-02T11:38:46.465Z,996.94
2023-04-02T11:39:46.422Z,996.90
2023-04-02T11:40:46.382Z,996.98
2023-04-02T11:41:46.350Z,996.98
2023-04-02T11:42:46.358Z,997.04
2023-04-02T11:43:46.357Z,997.11
2023-04-02T11:44:46.363Z,996.98
2023-04-02T11:45:52.912Z,997.10
2023-04-02T11:46:48.447Z,997.10
2023-04-02T11:47:46.347Z,997.19
2023-04-02T11:48:46.329Z,997.17
2023-04-02T11:49:46.271Z,997.13
2023-04-02T11:50:46.267Z,997.19
2023-04-02T11:51:46.274Z,997.21
2023-04-02T11:52:46.253Z,997.30
2023-04-02T11:53:46.269Z,997.27
2023-04-02T11:54:46.225Z,997.23
2023-04-02T11:55:46.217Z,997.22
2023-04-02T11:56:46.208Z,997.15
2023-04-02T11:57:46.191Z,997.36
2023-04-02T11:58:46.193Z,997.26
2023-04-02T11:59:46.171Z,997.41
2023-04-02T12:00:46.174Z,997.35
2023-04-02T12:01:46.206Z,997.36
2023-04-02T12:02:46.253Z,997.34
2023-04-02T12:03:46.152Z,997.42
2023-04-02T12:04:46.127Z,997.40
2023-04-02T12:05:46.153Z,997.45
2023-04-02T12:06:46.096Z,997.45
2023-04-02T12:07:46.084Z,997.43
2023-04-02T12:08:57.181Z,997.53
2023-04-02T12:09:48.092Z,997.53
2023-04-02T12:10:46.052Z,997.40
2023-04-02T12:11:46.061Z,997.49
2023-04-02T12:12:46.026Z,997.62
2023-04-02T12:13:46.045Z,997.47
2023-04-02T12:14:46.038Z,997.54
2023-04-02T12:15:46.009Z,997.48
2023-04-02T12:16:46.280Z,997.48
2023-04-02T12:17:45.994Z,997.50
2023-04-02T12:18:45.981Z,997.53
2023-04-02T12:19:45.983Z,997.56
2023-04-02T12:20:45.949Z,997.57
2023-04-02T12:21:45.935Z,997.55
2023-04-02T12:22:45.921Z,997.62
2023-04-02T12:23:45.928Z,997.60
2023-04-02T12:24:45.905Z,997.62
2023-04-02T12:25:45.889Z,997.66
2023-04-02T12:26:45.885Z,997.72
2023-04-02T12:27:45.876Z,997.73
2023-04-02T12:28:45.861Z,997.72